Time;durP1;ratioP1;P1;durP2;ratioP2;P2;SDS_P1;SDS_P2;PMS_P1;PMS_P2;Temp;Humidity;BMP_temperature;BMP_pressure;BME280_temperature;BME280_humidity;BME280_pressure;Samples;Min_cycle;Max_cycle;Signal;HPM_P1;HPM_P2
2022/03/05 00:02:17;;;;;;;17.48;6.93;;;;;;;;;;5037813;28;20610;-62
2022/03/05 00:04:42;;;;;;;16.02;7.15;;;;;;;;;;5035665;28;20072;-62
2022/03/05 00:07:08;;;;;;;21.92;7.13;;;;;;;;;;5038785;28;20033;-62
2022/03/05 00:09:33;;;;;;;18.45;6.63;;;;;;;;;;5038394;28;20056;-62
2022/03/05 00:11:59;;;;;;;16.85;6.55;;;;;;;;;;5042033;28;20475;-62
2022/03/05 00:14:25;;;;;;;12.45;6.13;;;;;;;;;;5043322;28;20150;-63
2022/03/05 00:16:50;;;;;;;13.30;5.80;;;;;;;;;;5046267;28;20033;-61
2022/03/05 00:19:16;;;;;;;18.08;5.80;;;;;;;;;;5044403;28;20057;-62
2022/03/05 00:21:42;;;;;;;17.42;5.72;;;;;;;;;;5044260;28;20119;-61
2022/03/05 00:24:07;;;;;;;14.13;5.03;;;;;;;;;;5042603;28;20132;-61
2022/03/05 00:26:35;;;;;;;19.52;5.28;;;;;;;;;;5038908;28;20141;-61
2022/03/05 00:29:01;;;;;;;12.38;5.13;;;;;;;;;;5046444;28;20067;-62
2022/03/05 00:31:26;;;;;;;14.73;5.00;;;;;;;;;;5040443;28;20053;-61
2022/03/05 00:33:52;;;;;;;12.10;4.72;;;;;;;;;;5041688;28;20110;-62
2022/03/05 00:36:17;;;;;;;16.10;5.60;;;;;;;;;;5041628;28;20368;-62
2022/03/05 00:38:43;;;;;;;9.05;4.75;;;;;;;;;;5042778;28;20974;-62
2022/03/05 00:41:08;;;;;;;14.48;4.57;;;;;;;;;;5041007;28;20056;-62
2022/03/05 00:43:34;;;;;;;14.80;5.13;;;;;;;;;;5042707;28;20503;-62
2022/03/05 00:46:00;;;;;;;12.82;5.07;;;;;;;;;;5042296;28;20055;-62
2022/03/05 00:48:26;;;;;;;14.88;5.32;;;;;;;;;;5037749;28;20615;-63
2022/03/05 00:50:51;;;;;;;14.77;4.70;;;;;;;;;;5044512;28;20025;-62
2022/03/05 00:53:18;;;;;;;8.18;3.72;;;;;;;;;;5031911;28;20520;-62
2022/03/05 00:55:44;;;;;;;9.98;4.72;;;;;;;;;;5043322;28;20029;-61
2022/03/05 00:58:10;;;;;;;12.75;4.90;;;;;;;;;;5043617;28;20033;-62
2022/03/05 01:00:35;;;;;;;17.63;5.40;;;;;;;;;;5041794;28;20048;-62
2022/03/05 01:03:04;;;;;;;10.32;4.70;;;;;;;;;;5050238;28;20044;-62
2022/03/05 01:05:29;;;;;;;9.40;4.78;;;;;;;;;;5052938;28;20076;-62
2022/03/05 01:07:55;;;;;;;14.43;4.65;;;;;;;;;;5038854;28;20061;-62
2022/03/05 01:10:20;;;;;;;15.70;5.22;;;;;;;;;;5037021;28;20034;-62
2022/03/05 01:12:46;;;;;;;11.20;5.07;;;;;;;;;;5045672;28;20509;-62
2022/03/05 01:15:11;;;;;;;13.20;4.55;;;;;;;;;;5044066;28;20523;-62
2022/03/05 01:17:37;;;;;;;18.65;4.07;;;;;;;;;;5045288;28;20032;-62
2022/03/05 01:20:03;;;;;;;13.63;4.07;;;;;;;;;;5040018;28;20032;-63
2022/03/05 01:22:28;;;;;;;12.40;4.57;;;;;;;;;;5038683;28;20171;-62
2022/03/05 01:24:54;;;;;;;13.93;4.32;;;;;;;;;;5043984;28;20111;-62
2022/03/05 01:27:22;;;;;;;12.43;4.07;;;;;;;;;;5039401;28;20608;-62
2022/03/05 01:29:47;;;;;;;13.55;4.30;;;;;;;;;;5054358;28;20114;-62
2022/03/05 01:32:13;;;;;;;15.40;4.85;;;;;;;;;;5049991;28;20052;-60
2022/03/05 01:34:38;;;;;;;8.90;3.92;;;;;;;;;;5044405;28;20076;-61
2022/03/05 01:37:04;;;;;;;12.93;4.30;;;;;;;;;;5041377;28;20121;-62
2022/03/05 01:39:29;;;;;;;13.60;4.72;;;;;;;;;;5042035;28;20034;-62
2022/03/05 01:41:55;;;;;;;15.90;4.00;;;;;;;;;;5050574;28;20484;-62
2022/03/05 01:44:22;;;;;;;12.05;3.70;;;;;;;;;;5038155;28;20033;-62
2022/03/05 01:46:48;;;;;;;14.43;4.75;;;;;;;;;;5036419;28;20030;-62
2022/03/05 01:49:14;;;;;;;7.90;3.85;;;;;;;;;;5045965;28;20021;-62
2022/03/05 01:51:41;;;;;;;8.98;3.38;;;;;;;;;;5044435;28;20033;-62
2022/03/05 01:54:07;;;;;;;10.52;4.30;;;;;;;;;;5036686;28;20514;-62
2022/03/05 01:56:34;;;;;;;11.10;3.78;;;;;;;;;;5036664;28;20127;-62
2022/03/05 01:59:00;;;;;;;12.73;3.38;;;;;;;;;;5048603;28;20037;-62
2022/03/05 02:01:27;;;;;;;7.82;3.72;;;;;;;;;;5054463;28;20509;-61
2022/03/05 02:03:54;;;;;;;8.60;3.63;;;;;;;;;;5041561;28;20041;-61
2022/03/05 02:06:20;;;;;;;11.10;3.50;;;;;;;;;;5040442;28;20427;-61
2022/03/05 02:08:49;;;;;;;8.13;3.13;;;;;;;;;;5057818;28;20036;-62
2022/03/05 02:11:15;;;;;;;10.48;2.97;;;;;;;;;;5043688;28;20117;-62
2022/03/05 02:13:41;;;;;;;11.35;3.63;;;;;;;;;;5051301;28;20480;-62
2022/03/05 02:16:07;;;;;;;8.80;3.80;;;;;;;;;;5042943;28;20036;-61
2022/03/05 02:18:33;;;;;;;9.70;3.05;;;;;;;;;;5039962;28;20041;-61
2022/03/05 02:20:59;;;;;;;9.80;3.42;;;;;;;;;;5040255;28;20032;-61
2022/03/05 02:23:24;;;;;;;17.27;3.55;;;;;;;;;;5042550;28;20137;-61
2022/03/05 02:26:05;;;;;;;8.07;2.97;;;;;;;;;;5049677;28;20029;-62
2022/03/05 02:28:32;;;;;;;11.05;3.38;;;;;;;;;;5046982;28;20059;-62
2022/03/05 02:30:58;;;;;;;8.75;2.80;;;;;;;;;;5038275;28;20059;-63
2022/03/05 02:33:24;;;;;;;6.45;2.90;;;;;;;;;;5047466;28;20476;-63
2022/03/05 02:35:49;;;;;;;10.52;3.50;;;;;;;;;;5043075;28;20067;-61
2022/03/05 02:38:20;;;;;;;12.52;3.00;;;;;;;;;;5044376;28;20067;-60
2022/03/05 02:40:47;;;;;;;23.38;4.35;;;;;;;;;;5044306;28;20125;-62
2022/03/05 02:43:12;;;;;;;9.57;3.40;;;;;;;;;;5050910;28;20072;-62
2022/03/05 02:45:39;;;;;;;11.38;3.65;;;;;;;;;;5045304;28;20124;-62
2022/03/05 02:48:09;;;;;;;6.63;2.72;;;;;;;;;;5050917;28;20055;-61
2022/03/05 02:50:36;;;;;;;8.63;2.85;;;;;;;;;;5038031;28;20028;-62
2022/03/05 02:53:02;;;;;;;15.80;3.78;;;;;;;;;;5045846;28;20048;-61
2022/03/05 02:55:28;;;;;;;9.05;2.67;;;;;;;;;;5046769;28;20037;-61
2022/03/05 02:57:53;;;;;;;10.15;2.75;;;;;;;;;;5041524;28;20032;-61
2022/03/05 03:00:19;;;;;;;8.13;2.92;;;;;;;;;;5045088;28;20120;-61
2022/03/05 03:02:45;;;;;;;7.90;2.92;;;;;;;;;;5042108;28;20036;-61
2022/03/05 03:05:12;;;;;;;12.40;2.72;;;;;;;;;;5045877;28;20030;-61
2022/03/05 03:07:38;;;;;;;6.30;2.72;;;;;;;;;;5041912;28;20035;-61
2022/03/05 03:10:05;;;;;;;11.55;3.00;;;;;;;;;;5032160;28;20025;-61
2022/03/05 03:12:31;;;;;;;9.73;3.10;;;;;;;;;;5043734;28;20032;-62
2022/03/05 03:14:57;;;;;;;12.50;3.15;;;;;;;;;;5048622;28;20074;-62
2022/03/05 03:17:22;;;;;;;11.15;3.15;;;;;;;;;;5048067;28;20401;-61
2022/03/05 03:19:48;;;;;;;7.22;2.88;;;;;;;;;;5045997;28;20051;-62
2022/03/05 03:22:14;;;;;;;12.93;3.00;;;;;;;;;;5037379;28;20031;-62
2022/03/05 03:24:43;;;;;;;6.93;2.65;;;;;;;;;;5037984;28;20090;-61
2022/03/05 03:27:09;;;;;;;10.25;3.20;;;;;;;;;;5039114;28;20387;-62
2022/03/05 03:29:34;;;;;;;6.43;2.53;;;;;;;;;;5042423;28;20074;-61
2022/03/05 03:32:00;;;;;;;8.70;2.80;;;;;;;;;;5049185;28;20109;-61
2022/03/05 03:34:27;;;;;;;10.82;2.65;;;;;;;;;;5042659;28;20370;-61
2022/03/05 03:36:53;;;;;;;7.43;2.63;;;;;;;;;;5035272;28;20106;-62
2022/03/05 03:39:18;;;;;;;7.63;2.67;;;;;;;;;;5046708;28;20685;-61
2022/03/05 03:41:44;;;;;;;11.02;2.53;;;;;;;;;;5047606;28;20033;-62
2022/03/05 03:44:09;;;;;;;14.20;3.42;;;;;;;;;;5038812;28;20562;-62
2022/03/05 03:46:35;;;;;;;10.55;2.95;;;;;;;;;;5042556;28;20561;-62
2022/03/05 03:49:00;;;;;;;14.02;3.40;;;;;;;;;;5041108;28;20021;-62
2022/03/05 03:51:26;;;;;;;11.73;3.05;;;;;;;;;;5041419;28;20033;-61
2022/03/05 03:53:51;;;;;;;7.05;2.28;;;;;;;;;;5043198;28;20072;-60
2022/03/05 03:56:17;;;;;;;9.43;2.60;;;;;;;;;;5050319;28;20037;-61
2022/03/05 03:58:42;;;;;;;12.88;3.22;;;;;;;;;;5048834;28;20032;-60
2022/03/05 04:01:08;;;;;;;7.55;2.72;;;;;;;;;;5046070;28;20045;-61
2022/03/05 04:03:33;;;;;;;8.50;2.72;;;;;;;;;;5047986;28;20072;-61
2022/03/05 04:05:59;;;;;;;12.43;2.65;;;;;;;;;;5042510;28;20052;-61
2022/03/05 04:08:43;;;;;;;11.95;2.65;;;;;;;;;;5042539;28;20040;-62
2022/03/05 04:11:09;;;;;;;13.10;3.03;;;;;;;;;;5037989;28;20491;-62
2022/03/05 04:13:35;;;;;;;9.50;2.28;;;;;;;;;;5043319;28;20043;-62
2022/03/05 04:16:01;;;;;;;6.30;2.42;;;;;;;;;;5041527;28;20026;-61
2022/03/05 04:18:26;;;;;;;10.52;2.55;;;;;;;;;;5042886;28;20427;-62
2022/03/05 04:20:52;;;;;;;9.32;2.25;;;;;;;;;;5043306;28;20045;-62
2022/03/05 04:23:17;;;;;;;6.05;2.42;;;;;;;;;;5039860;28;20403;-62
2022/03/05 04:25:42;;;;;;;10.00;2.80;;;;;;;;;;5051769;28;20521;-62
2022/03/05 04:28:08;;;;;;;12.13;3.35;;;;;;;;;;5041635;28;20515;-62
2022/03/05 04:30:35;;;;;;;7.05;2.83;;;;;;;;;;5048161;28;20406;-62
2022/03/05 04:33:00;;;;;;;14.20;2.92;;;;;;;;;;5047516;28;20282;-62
2022/03/05 04:35:26;;;;;;;4.20;2.13;;;;;;;;;;5056009;28;20285;-62
2022/03/05 04:37:51;;;;;;;9.43;2.53;;;;;;;;;;5045324;28;20112;-62
2022/03/05 04:40:17;;;;;;;5.63;2.08;;;;;;;;;;5048311;28;20055;-62
2022/03/05 04:42:43;;;;;;;8.43;2.33;;;;;;;;;;5044237;28;20052;-62
2022/03/05 04:45:09;;;;;;;11.77;2.78;;;;;;;;;;5045977;28;20566;-62
2022/03/05 04:47:36;;;;;;;10.40;2.97;;;;;;;;;;5047731;28;20636;-62
2022/03/05 04:50:04;;;;;;;7.32;2.58;;;;;;;;;;5047570;28;20387;-62
2022/03/05 04:52:29;;;;;;;11.55;2.40;;;;;;;;;;5048306;28;20483;-63
2022/03/05 04:54:55;;;;;;;12.75;2.78;;;;;;;;;;5050964;28;20040;-62
2022/03/05 04:57:20;;;;;;;7.85;2.13;;;;;;;;;;5051199;28;20036;-63
2022/03/05 04:59:46;;;;;;;11.82;2.22;;;;;;;;;;5041324;28;20091;-62
2022/03/05 05:02:11;;;;;;;5.60;2.13;;;;;;;;;;5046671;28;20132;-62
2022/03/05 05:04:37;;;;;;;11.27;1.77;;;;;;;;;;5054476;28;20045;-63
2022/03/05 05:07:02;;;;;;;4.47;1.75;;;;;;;;;;5043862;28;20092;-63
2022/03/05 05:09:28;;;;;;;9.68;2.10;;;;;;;;;;5047848;28;20037;-63
2022/03/05 05:11:54;;;;;;;5.85;1.50;;;;;;;;;;5045043;28;20029;-63
2022/03/05 05:14:19;;;;;;;12.73;1.65;;;;;;;;;;5041785;28;20037;-63
2022/03/05 05:16:45;;;;;;;8.50;1.55;;;;;;;;;;5057081;28;20426;-63
2022/03/05 05:19:27;;;;;;;7.45;1.60;;;;;;;;;;5046180;28;20033;-63
2022/03/05 05:22:00;;;;;;;7.20;2.15;;;;;;;;;;5046594;28;20064;-63
2022/03/05 05:24:28;;;;;;;2.53;1.40;;;;;;;;;;5048724;28;20689;-64
2022/03/05 05:26:54;;;;;;;6.70;1.85;;;;;;;;;;5048308;28;20026;-62
2022/03/05 05:29:20;;;;;;;8.95;1.95;;;;;;;;;;5050960;28;20032;-62
2022/03/05 05:31:45;;;;;;;7.03;1.60;;;;;;;;;;5051335;28;20545;-63
2022/03/05 05:34:11;;;;;;;10.75;2.00;;;;;;;;;;5041320;28;20021;-62
2022/03/05 05:36:38;;;;;;;6.07;1.80;;;;;;;;;;5053747;28;20051;-62
2022/03/05 05:39:08;;;;;;;12.30;2.58;;;;;;;;;;5036148;28;20039;-63
2022/03/05 05:41:35;;;;;;;7.72;1.88;;;;;;;;;;5054530;28;20142;-63
2022/03/05 05:44:02;;;;;;;8.60;2.30;;;;;;;;;;5047630;28;20119;-63
2022/03/05 05:46:28;;;;;;;11.88;2.28;;;;;;;;;;5042647;28;20033;-63
2022/03/05 05:48:55;;;;;;;11.40;1.92;;;;;;;;;;5051016;28;20036;-62
2022/03/05 05:51:20;;;;;;;6.88;1.67;;;;;;;;;;5043157;28;20124;-64
2022/03/05 05:53:45;;;;;;;7.55;2.38;;;;;;;;;;5044236;28;20128;-64
2022/03/05 05:56:11;;;;;;;6.32;1.50;;;;;;;;;;5043626;28;20090;-63
2022/03/05 05:58:36;;;;;;;10.43;1.60;;;;;;;;;;5040566;28;20040;-62
2022/03/05 06:01:02;;;;;;;5.22;1.58;;;;;;;;;;5042503;28;20741;-62
2022/03/05 06:03:27;;;;;;;4.82;1.55;;;;;;;;;;5047929;28;20044;-63
2022/03/05 06:05:53;;;;;;;4.03;1.67;;;;;;;;;;5046585;28;20036;-62
2022/03/05 06:08:18;;;;;;;9.80;2.15;;;;;;;;;;5040930;28;20025;-61
2022/03/05 06:10:44;;;;;;;4.43;1.63;;;;;;;;;;5046791;28;20551;-61
2022/03/05 06:13:10;;;;;;;8.73;2.10;;;;;;;;;;5044572;28;20037;-61
2022/03/05 06:15:35;;;;;;;9.05;1.50;;;;;;;;;;5045277;28;20116;-61
2022/03/05 06:18:00;;;;;;;7.93;2.20;;;;;;;;;;5041489;28;20028;-62
2022/03/05 06:20:26;;;;;;;16.13;2.50;;;;;;;;;;5042445;28;20052;-61
2022/03/05 06:22:51;;;;;;;7.18;1.52;;;;;;;;;;5040134;28;20052;-62
2022/03/05 06:25:20;;;;;;;13.93;2.47;;;;;;;;;;5045596;28;20037;-62
2022/03/05 06:27:45;;;;;;;10.55;2.35;;;;;;;;;;5051663;28;20032;-62
2022/03/05 06:30:12;;;;;;;8.82;2.85;;;;;;;;;;5054922;28;20039;-62
2022/03/05 06:32:38;;;;;;;7.18;1.90;;;;;;;;;;5047350;28;20049;-63
2022/03/05 06:35:05;;;;;;;6.57;2.28;;;;;;;;;;5051108;28;20063;-63
2022/03/05 06:37:31;;;;;;;7.68;2.13;;;;;;;;;;5044052;28;20458;-63
2022/03/05 06:39:57;;;;;;;8.15;2.00;;;;;;;;;;5050663;28;20021;-63
2022/03/05 06:42:23;;;;;;;8.02;1.73;;;;;;;;;;5050635;28;20048;-64
2022/03/05 06:44:49;;;;;;;6.70;1.55;;;;;;;;;;5041335;28;20033;-63
2022/03/05 06:47:15;;;;;;;4.88;1.75;;;;;;;;;;5051350;28;20423;-63
2022/03/05 06:49:41;;;;;;;5.97;1.60;;;;;;;;;;5047380;28;20028;-62
2022/03/05 06:52:07;;;;;;;8.30;1.80;;;;;;;;;;5041439;28;20491;-62
2022/03/05 06:54:32;;;;;;;8.07;1.83;;;;;;;;;;5043849;28;20077;-63
2022/03/05 06:56:58;;;;;;;10.52;2.10;;;;;;;;;;5056382;28;20055;-62
2022/03/05 06:59:24;;;;;;;6.22;1.67;;;;;;;;;;5041104;28;20025;-64
2022/03/05 07:01:50;;;;;;;15.75;2.00;;;;;;;;;;5047609;28;20030;-63
2022/03/05 07:04:16;;;;;;;5.20;1.50;;;;;;;;;;5042464;28;20036;-63
2022/03/05 07:06:41;;;;;;;7.03;1.90;;;;;;;;;;5045592;28;20494;-63
2022/03/05 07:09:07;;;;;;;3.25;1.48;;;;;;;;;;5048095;28;20450;-62
2022/03/05 07:11:32;;;;;;;7.22;1.88;;;;;;;;;;5051942;28;20384;-63
2022/03/05 07:13:59;;;;;;;14.05;2.00;;;;;;;;;;5041527;28;20033;-63
2022/03/05 07:16:24;;;;;;;4.38;1.60;;;;;;;;;;5057826;28;20107;-63
2022/03/05 07:18:50;;;;;;;3.40;1.33;;;;;;;;;;5040881;28;20123;-62
2022/03/05 07:21:15;;;;;;;5.63;1.52;;;;;;;;;;5044629;28;20029;-62
2022/03/05 07:23:41;;;;;;;9.38;2.20;;;;;;;;;;5043523;28;20557;-63
2022/03/05 07:26:06;;;;;;;11.40;1.50;;;;;;;;;;5052191;28;20037;-62
2022/03/05 07:28:32;;;;;;;8.68;1.60;;;;;;;;;;5048042;28;20044;-63
2022/03/05 07:30:57;;;;;;;10.50;1.50;;;;;;;;;;5045992;28;20028;-63
2022/03/05 07:33:24;;;;;;;3.42;1.40;;;;;;;;;;5058442;28;20052;-63
2022/03/05 07:35:49;;;;;;;5.78;1.23;;;;;;;;;;5052702;28;20190;-61
2022/03/05 07:38:15;;;;;;;5.88;1.25;;;;;;;;;;5048298;28;20123;-62
2022/03/05 07:40:40;;;;;;;6.55;1.52;;;;;;;;;;5038658;28;20037;-63
2022/03/05 07:43:06;;;;;;;7.28;1.52;;;;;;;;;;5039987;28;20056;-62
2022/03/05 07:45:31;;;;;;;4.97;1.45;;;;;;;;;;5056732;28;20610;-63
2022/03/05 07:47:57;;;;;;;11.93;1.70;;;;;;;;;;5047760;28;20041;-63
2022/03/05 07:50:23;;;;;;;5.55;1.20;;;;;;;;;;5041512;28;20034;-62
2022/03/05 07:52:48;;;;;;;11.13;2.17;;;;;;;;;;5045614;28;20094;-62
2022/03/05 07:55:14;;;;;;;8.60;1.08;;;;;;;;;;5044791;28;20045;-62
2022/03/05 07:57:39;;;;;;;6.60;1.55;;;;;;;;;;5043876;28;20037;-63
2022/03/05 08:00:06;;;;;;;7.05;1.67;;;;;;;;;;5043828;28;20479;-64
2022/03/05 08:02:32;;;;;;;8.25;1.48;;;;;;;;;;5042688;28;20048;-63
2022/03/05 08:04:58;;;;;;;7.47;1.10;;;;;;;;;;5050110;28;20040;-62
2022/03/05 08:07:24;;;;;;;8.65;1.40;;;;;;;;;;5048295;28;20429;-64
2022/03/05 08:09:50;;;;;;;4.50;1.00;;;;;;;;;;5043653;28;20404;-63
2022/03/05 08:12:15;;;;;;;14.55;2.13;;;;;;;;;;5042842;28;20021;-62
2022/03/05 08:14:42;;;;;;;19.35;1.92;;;;;;;;;;5042053;28;20043;-63
2022/03/05 08:17:07;;;;;;;2.63;0.93;;;;;;;;;;5032556;28;20496;-63
2022/03/05 08:19:33;;;;;;;7.65;1.73;;;;;;;;;;5043044;28;20043;-63
2022/03/05 08:21:59;;;;;;;3.75;1.15;;;;;;;;;;5043543;28;20086;-63
2022/03/05 08:24:24;;;;;;;11.00;1.80;;;;;;;;;;5033721;28;20057;-64
2022/03/05 08:26:50;;;;;;;2.40;0.90;;;;;;;;;;5035168;28;20132;-63
2022/03/05 08:29:15;;;;;;;3.65;1.02;;;;;;;;;;5043519;28;20035;-62
2022/03/05 08:31:41;;;;;;;5.35;1.00;;;;;;;;;;5052715;28;20457;-62
2022/03/05 08:34:06;;;;;;;10.05;1.75;;;;;;;;;;5040885;28;20529;-63
2022/03/05 08:36:32;;;;;;;7.07;1.95;;;;;;;;;;5041338;28;20053;-63
2022/03/05 08:38:59;;;;;;;7.18;1.67;;;;;;;;;;5040122;28;20090;-62
2022/03/05 08:41:25;;;;;;;6.72;2.28;;;;;;;;;;5053649;28;20030;-62
2022/03/05 08:43:52;;;;;;;4.70;0.95;;;;;;;;;;5048125;28;20040;-61
2022/03/05 08:46:18;;;;;;;4.45;1.60;;;;;;;;;;5050449;28;20112;-61
2022/03/05 08:48:44;;;;;;;8.27;1.98;;;;;;;;;;5046058;28;20024;-62
2022/03/05 08:51:09;;;;;;;13.75;2.78;;;;;;;;;;5050030;28;20029;-63
2022/03/05 08:53:35;;;;;;;6.80;1.90;;;;;;;;;;5050759;28;20063;-61
2022/03/05 08:56:00;;;;;;;12.93;2.63;;;;;;;;;;5043611;28;20561;-62
2022/03/05 08:58:26;;;;;;;13.07;1.00;;;;;;;;;;5043447;28;20031;-62
2022/03/05 09:00:53;;;;;;;15.05;2.58;;;;;;;;;;5039703;28;20394;-62
2022/03/05 09:03:19;;;;;;;8.98;1.70;;;;;;;;;;5044256;28;20051;-61
2022/03/05 09:05:46;;;;;;;8.48;1.88;;;;;;;;;;5048276;28;20483;-61
2022/03/05 09:08:12;;;;;;;14.27;2.85;;;;;;;;;;5044323;28;20029;-60
2022/03/05 09:10:37;;;;;;;9.00;2.45;;;;;;;;;;5040279;28;20025;-63
2022/03/05 09:13:03;;;;;;;5.82;1.23;;;;;;;;;;5040283;28;20082;-62
2022/03/05 09:15:28;;;;;;;6.75;1.48;;;;;;;;;;5050667;28;20116;-63
2022/03/05 09:17:54;;;;;;;7.45;2.20;;;;;;;;;;5042941;28;20087;-64
2022/03/05 09:20:20;;;;;;;6.72;1.63;;;;;;;;;;5042162;28;20037;-63
2022/03/05 09:22:45;;;;;;;8.02;1.65;;;;;;;;;;5036582;28;20044;-64
2022/03/05 09:25:11;;;;;;;4.43;0.82;;;;;;;;;;5043052;28;20060;-62
2022/03/05 09:27:38;;;;;;;7.57;1.55;;;;;;;;;;5037759;28;20033;-61
2022/03/05 09:30:04;;;;;;;10.23;1.52;;;;;;;;;;5045221;28;20081;-62
2022/03/05 09:32:30;;;;;;;9.20;1.52;;;;;;;;;;5047422;28;20063;-61
2022/03/05 09:34:59;;;;;;;4.68;1.15;;;;;;;;;;5039440;28;20025;-60
2022/03/05 09:37:29;;;;;;;11.38;1.65;;;;;;;;;;5046140;28;20036;-61
2022/03/05 09:39:58;;;;;;;7.30;2.00;;;;;;;;;;5041207;28;20029;-63
2022/03/05 09:42:25;;;;;;;10.68;2.05;;;;;;;;;;5039370;28;20044;-63
2022/03/05 09:44:51;;;;;;;4.95;1.30;;;;;;;;;;5044080;28;20033;-60
2022/03/05 09:47:16;;;;;;;4.70;1.10;;;;;;;;;;5039914;28;20051;-60
2022/03/05 09:49:42;;;;;;;3.92;0.95;;;;;;;;;;5039450;28;20111;-61
2022/03/05 09:52:08;;;;;;;10.30;2.20;;;;;;;;;;5043053;28;20037;-61
2022/03/05 09:54:34;;;;;;;9.75;1.58;;;;;;;;;;5042174;28;20029;-61
2022/03/05 09:57:00;;;;;;;4.25;1.58;;;;;;;;;;5048282;28;20044;-60
2022/03/05 09:59:26;;;;;;;6.38;1.63;;;;;;;;;;5037211;28;20033;-63
2022/03/05 10:01:52;;;;;;;11.73;2.00;;;;;;;;;;5048553;28;20028;-62
2022/03/05 10:04:20;;;;;;;11.52;1.92;;;;;;;;;;5031764;28;20116;-60
2022/03/05 10:06:47;;;;;;;10.00;1.77;;;;;;;;;;5063878;28;20044;-60
2022/03/05 10:09:22;;;;;;;12.00;1.90;;;;;;;;;;5052676;28;20134;-59
2022/03/05 10:11:47;;;;;;;13.25;2.47;;;;;;;;;;5047960;28;20024;-58
2022/03/05 10:14:19;;;;;;;10.38;2.03;;;;;;;;;;5049096;28;20040;-59
2022/03/05 10:16:45;;;;;;;11.70;2.38;;;;;;;;;;5050029;28;20033;-58
2022/03/05 10:19:18;;;;;;;5.40;2.08;;;;;;;;;;5046659;28;20510;-59
2022/03/05 10:22:05;;;;;;;11.38;2.00;;;;;;;;;;5036775;28;20116;-61
2022/03/05 10:24:36;;;;;;;8.43;1.67;;;;;;;;;;5043831;28;20029;-63
2022/03/05 10:27:03;;;;;;;8.27;1.67;;;;;;;;;;5052443;28;20391;-62
2022/03/05 10:29:35;;;;;;;8.82;1.58;;;;;;;;;;5053081;28;20300;-59
2022/03/05 10:32:08;;;;;;;3.72;1.23;;;;;;;;;;5037512;28;20049;-61
2022/03/05 10:34:50;;;;;;;14.40;1.83;;;;;;;;;;5050282;28;20045;-60
2022/03/05 10:37:17;;;;;;;11.73;2.08;;;;;;;;;;5040665;28;20111;-60
2022/03/05 10:39:43;;;;;;;3.95;1.17;;;;;;;;;;5061114;28;20060;-61
2022/03/05 10:42:22;;;;;;;10.00;1.13;;;;;;;;;;5040884;28;20380;-60
2022/03/05 10:45:06;;;;;;;5.47;0.93;;;;;;;;;;5048414;28;20051;-61
2022/03/05 10:47:40;;;;;;;6.85;0.90;;;;;;;;;;5054274;28;20020;-61
2022/03/05 10:50:27;;;;;;;4.03;0.65;;;;;;;;;;5042573;28;20529;-61
2022/03/05 10:53:00;;;;;;;4.75;0.65;;;;;;;;;;5036092;28;20496;-60
2022/03/05 10:55:37;;;;;;;7.35;0.52;;;;;;;;;;5048148;28;20036;-61
2022/03/05 10:58:20;;;;;;;3.70;0.55;;;;;;;;;;5048862;28;20033;-61
2022/03/05 11:00:49;;;;;;;5.93;0.85;;;;;;;;;;5043367;28;20483;-62
2022/03/05 11:03:15;;;;;;;7.57;0.43;;;;;;;;;;5045631;28;20044;-61
2022/03/05 11:05:41;;;;;;;7.30;0.75;;;;;;;;;;5047737;28;20033;-61
2022/03/05 11:08:07;;;;;;;5.57;0.60;;;;;;;;;;5042326;28;20021;-61
2022/03/05 11:10:32;;;;;;;6.97;0.60;;;;;;;;;;5045899;28;20546;-61
2022/03/05 11:13:02;;;;;;;4.22;0.88;;;;;;;;;;5049128;28;20423;-61
2022/03/05 11:15:30;;;;;;;6.07;0.60;;;;;;;;;;5046532;28;20051;-61
2022/03/05 11:17:58;;;;;;;6.50;0.60;;;;;;;;;;5042983;28;20546;-61
2022/03/05 11:20:24;;;;;;;2.13;0.35;;;;;;;;;;5045315;28;20399;-61
2022/03/05 11:22:50;;;;;;;8.07;0.90;;;;;;;;;;5039579;28;20024;-60
2022/03/05 11:25:19;;;;;;;5.25;0.65;;;;;;;;;;5046567;28;20036;-61
2022/03/05 11:28:17;;;;;;;3.97;0.47;;;;;;;;;;5055680;28;20033;-60
2022/03/05 11:30:44;;;;;;;3.97;0.60;;;;;;;;;;5044010;28;20139;-61
2022/03/05 11:33:22;;;;;;;4.03;0.85;;;;;;;;;;5041267;28;20044;-62
2022/03/05 11:35:48;;;;;;;2.53;0.57;;;;;;;;;;5042810;28;20034;-62
2022/03/05 11:38:34;;;;;;;3.90;0.98;;;;;;;;;;5048700;28;20096;-61
2022/03/05 11:41:25;;;;;;;6.85;1.08;;;;;;;;;;5041357;28;20026;-61
2022/03/05 11:43:51;;;;;;;8.25;0.73;;;;;;;;;;5044051;28;20037;-60
2022/03/05 11:46:27;;;;;;;6.07;0.20;;;;;;;;;;5050502;28;20035;-60
2022/03/05 11:48:59;;;;;;;2.83;0.40;;;;;;;;;;5041449;28;20500;-61
2022/03/05 11:51:25;;;;;;;6.90;0.57;;;;;;;;;;5039361;28;20135;-61
2022/03/05 11:54:11;;;;;;;6.32;0.40;;;;;;;;;;5034821;28;20124;-60
2022/03/05 11:56:37;;;;;;;8.23;0.85;;;;;;;;;;5035526;28;20037;-61
2022/03/05 11:59:28;;;;;;;6.95;0.85;;;;;;;;;;5042026;28;20048;-59
2022/03/05 12:01:53;;;;;;;11.43;1.02;;;;;;;;;;5034946;28;20419;-60
2022/03/05 12:04:22;;;;;;;2.83;0.38;;;;;;;;;;5025053;28;20025;-62
2022/03/05 12:06:52;;;;;;;4.32;0.47;;;;;;;;;;5039282;28;20040;-60
2022/03/05 12:09:32;;;;;;;6.15;0.32;;;;;;;;;;5056160;28;20499;-62
2022/03/05 12:11:59;;;;;;;7.07;0.65;;;;;;;;;;5060597;28;20395;-62
2022/03/05 12:15:04;;;;;;;8.98;0.65;;;;;;;;;;5049659;28;20104;-62
2022/03/05 12:17:37;;;;;;;5.32;0.40;;;;;;;;;;5053614;28;20039;-63
2022/03/05 12:20:08;;;;;;;9.48;0.88;;;;;;;;;;5057475;28;20038;-62
2022/03/05 12:22:34;;;;;;;7.90;1.40;;;;;;;;;;5045937;28;20033;-62
2022/03/05 12:24:59;;;;;;;6.53;1.08;;;;;;;;;;5055546;28;20037;-62
2022/03/05 12:27:29;;;;;;;5.45;0.75;;;;;;;;;;5057925;28;20415;-62
2022/03/05 12:29:56;;;;;;;4.60;1.23;;;;;;;;;;5059080;28;20020;-61
2022/03/05 12:32:28;;;;;;;4.93;0.80;;;;;;;;;;5053017;28;20121;-61
2022/03/05 12:35:02;;;;;;;5.57;0.43;;;;;;;;;;5054092;28;20028;-61
2022/03/05 12:37:31;;;;;;;10.52;0.95;;;;;;;;;;5042684;28;20041;-62
2022/03/05 12:39:58;;;;;;;3.70;0.80;;;;;;;;;;5052765;28;20052;-62
2022/03/05 12:42:33;;;;;;;6.32;1.15;;;;;;;;;;5054823;28;20480;-62
2022/03/05 12:44:58;;;;;;;9.73;1.25;;;;;;;;;;5059789;28;20032;-61
2022/03/05 12:47:31;;;;;;;18.23;2.05;;;;;;;;;;5045769;28;20102;-62
2022/03/05 12:49:56;;;;;;;9.23;1.15;;;;;;;;;;5051763;28;20017;-62
2022/03/05 12:52:25;;;;;;;6.75;1.25;;;;;;;;;;5047415;28;20191;-63
2022/03/05 12:54:54;;;;;;;11.10;1.15;;;;;;;;;;5051827;28;20033;-62
2022/03/05 12:57:19;;;;;;;2.47;0.38;;;;;;;;;;5048776;28;20349;-63
2022/03/05 12:59:45;;;;;;;5.68;0.40;;;;;;;;;;5079492;28;20047;-62
2022/03/05 13:02:10;;;;;;;5.78;0.80;;;;;;;;;;5044889;28;20037;-61
2022/03/05 13:04:37;;;;;;;4.15;0.40;;;;;;;;;;5060684;28;20064;-61
2022/03/05 13:07:03;;;;;;;5.43;0.40;;;;;;;;;;5051195;28;20505;-62
2022/03/05 13:09:30;;;;;;;4.22;0.35;;;;;;;;;;5051570;28;20029;-62
2022/03/05 13:11:56;;;;;;;1.85;0.40;;;;;;;;;;5052246;28;20041;-61
2022/03/05 13:14:23;;;;;;;3.95;0.50;;;;;;;;;;5053448;28;20020;-60
2022/03/05 13:16:50;;;;;;;3.55;0.47;;;;;;;;;;5048279;28;20033;-62
2022/03/05 13:19:16;;;;;;;4.07;0.80;;;;;;;;;;5055423;28;20032;-62
2022/03/05 13:21:44;;;;;;;12.57;0.60;;;;;;;;;;5054014;28;20037;-60
2022/03/05 13:24:13;;;;;;;2.88;0.40;;;;;;;;;;5052560;28;20047;-62
2022/03/05 13:26:47;;;;;;;5.20;0.55;;;;;;;;;;5052348;28;20032;-61
2022/03/05 13:29:14;;;;;;;12.10;0.82;;;;;;;;;;5056865;28;20039;-61
2022/03/05 13:31:40;;;;;;;5.18;0.40;;;;;;;;;;5048601;28;20052;-61
2022/03/05 13:34:05;;;;;;;9.43;0.93;;;;;;;;;;5062356;28;20029;-61
2022/03/05 13:36:39;;;;;;;7.45;0.75;;;;;;;;;;5054638;28;20404;-62
2022/03/05 13:39:16;;;;;;;8.13;0.82;;;;;;;;;;5050393;28;20266;-61
2022/03/05 13:41:46;;;;;;;2.35;0.57;;;;;;;;;;5049129;28;20045;-62
2022/03/05 13:44:23;;;;;;;6.88;0.70;;;;;;;;;;5053224;28;20069;-62
2022/03/05 13:46:54;;;;;;;7.07;0.80;;;;;;;;;;5052644;28;20028;-62
2022/03/05 13:49:21;;;;;;;5.00;0.40;;;;;;;;;;5055127;28;20403;-62
2022/03/05 13:51:49;;;;;;;9.15;0.70;;;;;;;;;;5047308;28;20343;-62
2022/03/05 13:54:14;;;;;;;6.70;0.55;;;;;;;;;;5047421;28;20020;-61
2022/03/05 13:56:48;;;;;;;10.27;1.27;;;;;;;;;;5042957;28;20047;-62
2022/03/05 13:59:18;;;;;;;8.80;0.70;;;;;;;;;;5045310;28;20024;-63
2022/03/05 14:01:45;;;;;;;2.92;0.38;;;;;;;;;;5051150;28;20033;-62
2022/03/05 14:04:19;;;;;;;7.78;0.60;;;;;;;;;;5056081;28;20040;-62
2022/03/05 14:06:56;;;;;;;12.45;2.47;;;;;;;;;;5051374;28;20055;-61
2022/03/05 14:09:39;;;;;;;10.38;1.60;;;;;;;;;;5043052;28;20107;-62
2022/03/05 14:12:10;;;;;;;9.88;0.82;;;;;;;;;;5051654;28;20271;-61
2022/03/05 14:14:38;;;;;;;5.97;1.20;;;;;;;;;;5036126;28;20039;-61
2022/03/05 14:17:04;;;;;;;4.80;1.25;;;;;;;;;;5049341;28;20372;-60
2022/03/05 14:19:31;;;;;;;6.20;0.60;;;;;;;;;;5042335;28;20028;-62
2022/03/05 14:22:11;;;;;;;4.93;0.47;;;;;;;;;;5038177;28;20052;-62
2022/03/05 14:24:43;;;;;;;14.63;1.00;;;;;;;;;;5035352;28;20061;-60
2022/03/05 14:27:14;;;;;;;6.18;0.70;;;;;;;;;;5034783;28;20028;-60
2022/03/05 14:29:41;;;;;;;6.00;1.17;;;;;;;;;;5033978;28;20169;-61
2022/03/05 14:32:06;;;;;;;11.73;1.80;;;;;;;;;;5034052;28;20056;-60
2022/03/05 14:34:32;;;;;;;14.40;2.38;;;;;;;;;;5037214;28;20041;-61
2022/03/05 14:36:58;;;;;;;10.52;2.00;;;;;;;;;;5048316;28;20633;-62
2022/03/05 14:39:23;;;;;;;5.50;1.27;;;;;;;;;;5035878;28;20175;-61
2022/03/05 14:41:49;;;;;;;4.15;0.75;;;;;;;;;;5052584;28;20029;-61